sensor_id;sensor_type;location;lat;lon;timestamp;pressure;altitude;pressure_sealevel;temperature;humidity
16461;BME280;8341;42.048;24.650;2024-03-23T00:54:08;97329.78;;;6.73;63.57
16461;BME280;8341;42.048;24.650;2024-03-23T00:56:35;97329.56;;;6.80;64.62
16461;BME280;8341;42.048;24.650;2024-03-23T00:59:01;97328.16;;;6.76;65.26
16461;BME280;8341;42.048;24.650;2024-03-23T01:01:28;97330.44;;;6.56;65.43
16461;BME280;8341;42.048;24.650;2024-03-23T01:03:53;97327.50;;;6.41;66.88
16461;BME280;8341;42.048;24.650;2024-03-23T01:06:20;97332.94;;;6.41;66.61
16461;BME280;8341;42.048;24.650;2024-03-23T01:08:48;97326.44;;;6.17;66.67
16461;BME280;8341;42.048;24.650;2024-03-23T01:11:15;97324.22;;;6.24;66.92
16461;BME280;8341;42.048;24.650;2024-03-23T01:13:40;97331.03;;;6.29;66.03
16461;BME280;8341;42.048;24.650;2024-03-23T01:16:07;97328.72;;;6.18;66.10
16461;BME280;8341;42.048;24.650;2024-03-23T01:18:33;97330.34;;;6.16;66.28
16461;BME280;8341;42.048;24.650;2024-03-23T01:21:00;97329.06;;;6.08;69.23
16461;BME280;8341;42.048;24.650;2024-03-23T01:23:26;97323.94;;;5.76;69.11
16461;BME280;8341;42.048;24.650;2024-03-23T01:25:54;97332.31;;;5.68;71.26
16461;BME280;8341;42.048;24.650;2024-03-23T01:28:20;97330.63;;;5.49;71.88
16461;BME280;8341;42.048;24.650;2024-03-23T01:30:47;97331.91;;;5.45;72.41
16461;BME280;8341;42.048;24.650;2024-03-23T01:33:14;97329.00;;;5.39;73.73
16461;BME280;8341;42.048;24.650;2024-03-23T01:35:41;97329.66;;;5.43;74.31
16461;BME280;8341;42.048;24.650;2024-03-23T01:38:06;97331.06;;;5.35;73.22
16461;BME280;8341;42.048;24.650;2024-03-23T01:40:33;97320.88;;;5.39;73.46
16461;BME280;8341;42.048;24.650;2024-03-23T01:43:04;97323.25;;;5.50;73.35
16461;BME280;8341;42.048;24.650;2024-03-23T01:45:31;97334.84;;;5.50;72.55
16461;BME280;8341;42.048;24.650;2024-03-23T01:47:57;97327.50;;;5.38;74.48
16461;BME280;8341;42.048;24.650;2024-03-23T01:50:25;97330.31;;;5.22;74.84
16461;BME280;8341;42.048;24.650;2024-03-23T01:52:51;97319.97;;;5.08;74.91
16461;BME280;8341;42.048;24.650;2024-03-23T01:55:19;97323.31;;;5.12;74.56
16461;BME280;8341;42.048;24.650;2024-03-23T01:57:45;97328.50;;;5.19;74.79
16461;BME280;8341;42.048;24.650;2024-03-23T02:00:14;97326.44;;;5.23;74.82
16461;BME280;8341;42.048;24.650;2024-03-23T02:02:43;97322.53;;;5.24;73.58
16461;BME280;8341;42.048;24.650;2024-03-23T02:05:10;97336.06;;;5.24;73.58
16461;BME280;8341;42.048;24.650;2024-03-23T02:07:37;97334.00;;;5.28;73.68
16461;BME280;8341;42.048;24.650;2024-03-23T02:10:06;97328.28;;;5.26;73.90
16461;BME280;8341;42.048;24.650;2024-03-23T02:12:32;97335.50;;;5.29;73.40
16461;BME280;8341;42.048;24.650;2024-03-23T02:14:58;97320.81;;;5.30;73.72
16461;BME280;8341;42.048;24.650;2024-03-23T02:17:26;97328.47;;;5.32;73.06
16461;BME280;8341;42.048;24.650;2024-03-23T02:19:53;97324.69;;;5.29;73.94
16461;BME280;8341;42.048;24.650;2024-03-23T02:22:19;97320.81;;;5.18;74.12
16461;BME280;8341;42.048;24.650;2024-03-23T02:24:47;97318.75;;;5.34;74.62
16461;BME280;8341;42.048;24.650;2024-03-23T02:27:14;97320.56;;;5.37;73.77
16461;BME280;8341;42.048;24.650;2024-03-23T02:29:41;97323.59;;;5.39;73.26
16461;BME280;8341;42.048;24.650;2024-03-23T02:32:06;97321.13;;;5.32;73.95
16461;BME280;8341;42.048;24.650;2024-03-23T02:34:34;97319.94;;;5.33;72.96
16461;BME280;8341;42.048;24.650;2024-03-23T02:37:00;97318.56;;;5.29;72.95
16461;BME280;8341;42.048;24.650;2024-03-23T02:39:27;97319.50;;;5.22;73.68
16461;BME280;8341;42.048;24.650;2024-03-23T02:41:54;97313.69;;;5.11;74.23
16461;BME280;8341;42.048;24.650;2024-03-23T02:44:21;97323.63;;;5.14;73.24
16461;BME280;8341;42.048;24.650;2024-03-23T02:46:47;97321.91;;;5.20;73.05
16461;BME280;8341;42.048;24.650;2024-03-23T02:49:14;97326.13;;;5.21;73.87
16461;BME280;8341;42.048;24.650;2024-03-23T02:51:40;97316.19;;;5.18;73.83
16461;BME280;8341;42.048;24.650;2024-03-23T02:54:07;97320.06;;;5.17;73.52
16461;BME280;8341;42.048;24.650;2024-03-23T02:56:33;97317.81;;;5.03;74.02
16461;BME280;8341;42.048;24.650;2024-03-23T02:59:02;97312.41;;;5.03;75.15
16461;BME280;8341;42.048;24.650;2024-03-23T03:01:28;97314.56;;;5.08;74.07
16461;BME280;8341;42.048;24.650;2024-03-23T03:03:55;97318.56;;;5.16;74.74
16461;BME280;8341;42.048;24.650;2024-03-23T03:06:24;97317.91;;;5.12;74.65
16461;BME280;8341;42.048;24.650;2024-03-23T03:08:51;97319.44;;;5.13;74.79
16461;BME280;8341;42.048;24.650;2024-03-23T03:11:17;97318.22;;;5.14;74.95
16461;BME280;8341;42.048;24.650;2024-03-23T03:13:44;97312.81;;;5.14;75.90
16461;BME280;8341;42.048;24.650;2024-03-23T03:16:11;97308.94;;;5.15;75.42
16461;BME280;8341;42.048;24.650;2024-03-23T03:18:38;97315.53;;;5.14;75.16
16461;BME280;8341;42.048;24.650;2024-03-23T03:21:05;97311.31;;;5.13;75.03
16461;BME280;8341;42.048;24.650;2024-03-23T03:23:36;97315.31;;;5.08;75.36
16461;BME280;8341;42.048;24.650;2024-03-23T03:26:02;97302.25;;;4.94;75.27
16461;BME280;8341;42.048;24.650;2024-03-23T03:28:29;97298.00;;;4.93;74.83
16461;BME280;8341;42.048;24.650;2024-03-23T03:30:56;97306.56;;;4.92;75.73
16461;BME280;8341;42.048;24.650;2024-03-23T03:33:24;97304.63;;;4.92;75.88
16461;BME280;8341;42.048;24.650;2024-03-23T03:35:50;97304.94;;;4.94;76.45
16461;BME280;8341;42.048;24.650;2024-03-23T03:38:18;97306.56;;;4.92;75.21
16461;BME280;8341;42.048;24.650;2024-03-23T03:40:45;97307.53;;;4.85;75.81
16461;BME280;8341;42.048;24.650;2024-03-23T03:43:12;97310.78;;;4.93;75.90
16461;BME280;8341;42.048;24.650;2024-03-23T03:45:37;97307.31;;;4.92;76.50
16461;BME280;8341;42.048;24.650;2024-03-23T03:48:05;97312.28;;;4.94;76.55
16461;BME280;8341;42.048;24.650;2024-03-23T03:50:32;97312.59;;;4.96;76.39
16461;BME280;8341;42.048;24.650;2024-03-23T03:52:59;97317.47;;;4.88;76.15
16461;BME280;8341;42.048;24.650;2024-03-23T03:55:25;97310.44;;;4.91;75.43
16461;BME280;8341;42.048;24.650;2024-03-23T03:57:52;97318.13;;;4.92;74.62
16461;BME280;8341;42.048;24.650;2024-03-23T04:00:18;97310.25;;;4.98;74.65
16461;BME280;8341;42.048;24.650;2024-03-23T04:02:45;97319.63;;;4.93;75.09
16461;BME280;8341;42.048;24.650;2024-03-23T04:05:12;97323.41;;;4.96;75.44
16461;BME280;8341;42.048;24.650;2024-03-23T04:07:40;97328.63;;;4.90;74.43
16461;BME280;8341;42.048;24.650;2024-03-23T04:10:06;97324.94;;;4.97;75.68
16461;BME280;8341;42.048;24.650;2024-03-23T04:12:34;97326.25;;;4.92;75.24
16461;BME280;8341;42.048;24.650;2024-03-23T04:15:00;97327.63;;;4.97;75.36
16461;BME280;8341;42.048;24.650;2024-03-23T04:17:29;97318.00;;;4.96;75.85
16461;BME280;8341;42.048;24.650;2024-03-23T04:19:57;97337.91;;;4.89;76.34
16461;BME280;8341;42.048;24.650;2024-03-23T04:22:24;97329.72;;;4.93;76.02
16461;BME280;8341;42.048;24.650;2024-03-23T04:24:53;97338.66;;;4.90;77.36
16461;BME280;8341;42.048;24.650;2024-03-23T04:27:20;97336.59;;;4.94;77.75
16461;BME280;8341;42.048;24.650;2024-03-23T04:29:47;97329.25;;;4.82;76.56
16461;BME280;8341;42.048;24.650;2024-03-23T04:32:14;97335.75;;;4.84;77.99
16461;BME280;8341;42.048;24.650;2024-03-23T04:34:40;97321.25;;;4.66;77.34
16461;BME280;8341;42.048;24.650;2024-03-23T04:37:07;97342.44;;;4.80;77.39
16461;BME280;8341;42.048;24.650;2024-03-23T04:39:34;97336.50;;;4.85;76.83
16461;BME280;8341;42.048;24.650;2024-03-23T04:42:03;97330.44;;;4.81;76.94
16461;BME280;8341;42.048;24.650;2024-03-23T04:44:30;97334.44;;;4.89;75.71
16461;BME280;8341;42.048;24.650;2024-03-23T04:46:57;97336.91;;;4.71;77.86
16461;BME280;8341;42.048;24.650;2024-03-23T04:49:24;97334.22;;;4.71;75.75
16461;BME280;8341;42.048;24.650;2024-03-23T04:51:50;97337.47;;;4.91;74.79
16461;BME280;8341;42.048;24.650;2024-03-23T04:54:17;97339.31;;;5.06;76.08
16461;BME280;8341;42.048;24.650;2024-03-23T04:56:45;97335.75;;;5.10;75.73
16461;BME280;8341;42.048;24.650;2024-03-23T04:59:13;97337.81;;;5.18;74.58
16461;BME280;8341;42.048;24.650;2024-03-23T05:01:40;97345.69;;;5.25;74.26
16461;BME280;8341;42.048;24.650;2024-03-23T05:04:07;97339.41;;;5.28;75.22
16461;BME280;8341;42.048;24.650;2024-03-23T05:06:34;97347.53;;;5.28;74.48
16461;BME280;8341;42.048;24.650;2024-03-23T05:09:00;97338.56;;;5.31;74.67
16461;BME280;8341;42.048;24.650;2024-03-23T05:11:28;97338.56;;;5.31;73.79
16461;BME280;8341;42.048;24.650;2024-03-23T05:13:54;97347.31;;;5.35;73.40
16461;BME280;8341;42.048;24.650;2024-03-23T05:16:23;97343.25;;;5.52;73.65
16461;BME280;8341;42.048;24.650;2024-03-23T05:18:49;97337.31;;;5.57;74.38
16461;BME280;8341;42.048;24.650;2024-03-23T05:21:16;97338.03;;;5.70;74.60
16461;BME280;8341;42.048;24.650;2024-03-23T05:23:41;97333.69;;;5.86;74.70
16461;BME280;8341;42.048;24.650;2024-03-23T05:26:09;97337.81;;;5.78;73.07
16461;BME280;8341;42.048;24.650;2024-03-23T05:28:35;97339.50;;;5.97;72.04
16461;BME280;8341;42.048;24.650;2024-03-23T05:31:02;97333.22;;;6.00;73.25
16461;BME280;8341;42.048;24.650;2024-03-23T05:33:29;97329.81;;;5.87;71.21
16461;BME280;8341;42.048;24.650;2024-03-23T05:35:57;97328.19;;;6.11;72.01
16461;BME280;8341;42.048;24.650;2024-03-23T05:38:23;97326.16;;;6.02;70.06
16461;BME280;8341;42.048;24.650;2024-03-23T05:40:54;97336.91;;;5.81;69.70
16461;BME280;8341;42.048;24.650;2024-03-23T05:43:19;97325.78;;;5.79;69.44
16461;BME280;8341;42.048;24.650;2024-03-23T05:45:53;97313.41;;;6.03;69.84
16461;BME280;8341;42.048;24.650;2024-03-23T05:48:19;97323.22;;;6.31;70.60
16461;BME280;8341;42.048;24.650;2024-03-23T05:50:47;97327.56;;;6.50;71.33
16461;BME280;8341;42.048;24.650;2024-03-23T05:53:14;97324.94;;;6.68;70.87
16461;BME280;8341;42.048;24.650;2024-03-23T05:55:41;97322.34;;;6.86;70.50
16461;BME280;8341;42.048;24.650;2024-03-23T05:58:07;97316.69;;;7.03;69.66
16461;BME280;8341;42.048;24.650;2024-03-23T06:00:34;97330.94;;;6.63;67.04
16461;BME280;8341;42.048;24.650;2024-03-23T06:03:00;97320.38;;;6.56;68.89
16461;BME280;8341;42.048;24.650;2024-03-23T06:05:27;97333.84;;;6.47;69.38
16461;BME280;8341;42.048;24.650;2024-03-23T06:07:54;97326.25;;;6.33;70.95
16461;BME280;8341;42.048;24.650;2024-03-23T06:10:21;97327.94;;;6.18;72.12
16461;BME280;8341;42.048;24.650;2024-03-23T06:12:47;97322.13;;;6.07;72.26
16461;BME280;8341;42.048;24.650;2024-03-23T06:15:14;97335.94;;;6.00;73.15
16461;BME280;8341;42.048;24.650;2024-03-23T06:17:40;97318.94;;;6.21;73.20
16461;BME280;8341;42.048;24.650;2024-03-23T06:20:08;97331.53;;;6.15;72.22
16461;BME280;8341;42.048;24.650;2024-03-23T06:22:35;97332.69;;;6.26;72.37
16461;BME280;8341;42.048;24.650;2024-03-23T06:25:04;97330.09;;;6.23;72.50
16461;BME280;8341;42.048;24.650;2024-03-23T06:27:30;97334.69;;;6.35;71.85
16461;BME280;8341;42.048;24.650;2024-03-23T06:29:57;97333.84;;;6.47;71.52
16461;BME280;8341;42.048;24.650;2024-03-23T06:32:23;97337.75;;;6.68;71.40
16461;BME280;8341;42.048;24.650;2024-03-23T06:34:50;97337.97;;;6.82;69.58
16461;BME280;8341;42.048;24.650;2024-03-23T06:37:16;97328.81;;;6.89;68.52
16461;BME280;8341;42.048;24.650;2024-03-23T06:39:45;97330.84;;;7.07;67.43
16461;BME280;8341;42.048;24.650;2024-03-23T06:42:13;97333.91;;;7.09;68.08
16461;BME280;8341;42.048;24.650;2024-03-23T06:44:40;97334.38;;;7.16;67.77
16461;BME280;8341;42.048;24.650;2024-03-23T06:47:06;97337.56;;;7.24;67.15
16461;BME280;8341;42.048;24.650;2024-03-23T06:49:32;97338.78;;;7.32;67.17
16461;BME280;8341;42.048;24.650;2024-03-23T06:51:58;97334.63;;;7.49;66.75
16461;BME280;8341;42.048;24.650;2024-03-23T06:54:26;97335.56;;;7.73;67.39
16461;BME280;8341;42.048;24.650;2024-03-23T06:56:52;97339.19;;;7.70;65.58
16461;BME280;8341;42.048;24.650;2024-03-23T06:59:20;97340.09;;;7.94;64.45
16461;BME280;8341;42.048;24.650;2024-03-23T07:01:46;97331.34;;;7.99;64.52
16461;BME280;8341;42.048;24.650;2024-03-23T07:04:13;97336.78;;;8.17;64.88
16461;BME280;8341;42.048;24.650;2024-03-23T07:06:42;97329.84;;;8.07;65.19
16461;BME280;8341;42.048;24.650;2024-03-23T07:09:10;97327.44;;;7.91;63.70
16461;BME280;8341;42.048;24.650;2024-03-23T07:11:36;97330.16;;;8.18;63.69
16461;BME280;8341;42.048;24.650;2024-03-23T07:14:03;97332.91;;;8.28;62.88
16461;BME280;8341;42.048;24.650;2024-03-23T07:16:30;97325.31;;;8.23;62.95
16461;BME280;8341;42.048;24.650;2024-03-23T07:18:57;97335.28;;;8.26;63.62
16461;BME280;8341;42.048;24.650;2024-03-23T07:21:24;97332.28;;;8.42;63.06
16461;BME280;8341;42.048;24.650;2024-03-23T07:23:51;97325.34;;;8.41;62.68
16461;BME280;8341;42.048;24.650;2024-03-23T07:26:17;97330.31;;;8.51;63.35
16461;BME280;8341;42.048;24.650;2024-03-23T07:28:44;97330.75;;;8.59;62.46
16461;BME280;8341;42.048;24.650;2024-03-23T07:31:12;97332.06;;;8.72;61.39
16461;BME280;8341;42.048;24.650;2024-03-23T07:33:43;97333.13;;;8.75;62.02
16461;BME280;8341;42.048;24.650;2024-03-23T07:36:10;97325.22;;;8.95;60.79
16461;BME280;8341;42.048;24.650;2024-03-23T07:38:37;97330.28;;;9.11;60.18
16461;BME280;8341;42.048;24.650;2024-03-23T07:41:04;97322.75;;;9.06;59.44
16461;BME280;8341;42.048;24.650;2024-03-23T07:43:31;97328.50;;;8.99;59.12
16461;BME280;8341;42.048;24.650;2024-03-23T07:45:57;97331.78;;;9.12;58.50
16461;BME280;8341;42.048;24.650;2024-03-23T07:48:24;97320.88;;;9.21;59.04
16461;BME280;8341;42.048;24.650;2024-03-23T07:50:59;97329.34;;;9.14;57.22
16461;BME280;8341;42.048;24.650;2024-03-23T07:53:27;97329.06;;;9.12;59.03
16461;BME280;8341;42.048;24.650;2024-03-23T07:55:55;97314.06;;;9.26;58.07
16461;BME280;8341;42.048;24.650;2024-03-23T07:58:22;97302.69;;;9.27;58.45
16461;BME280;8341;42.048;24.650;2024-03-23T08:00:48;97314.94;;;9.56;57.21
16461;BME280;8341;42.048;24.650;2024-03-23T08:03:15;97319.94;;;9.57;57.74
16461;BME280;8341;42.048;24.650;2024-03-23T08:05:41;97315.34;;;9.63;56.65
16461;BME280;8341;42.048;24.650;2024-03-23T08:08:10;97314.78;;;9.83;57.31
16461;BME280;8341;42.048;24.650;2024-03-23T08:10:36;97310.94;;;10.13;56.64
16461;BME280;8341;42.048;24.650;2024-03-23T08:13:03;97305.69;;;10.24;56.12
16461;BME280;8341;42.048;24.650;2024-03-23T08:15:30;97308.34;;;10.48;55.37
16461;BME280;8341;42.048;24.650;2024-03-23T08:17:59;97311.72;;;10.28;54.04
16461;BME280;8341;42.048;24.650;2024-03-23T08:20:25;97308.53;;;10.44;52.13
16461;BME280;8341;42.048;24.650;2024-03-23T08:22:52;97305.72;;;10.53;53.97
16461;BME280;8341;42.048;24.650;2024-03-23T08:25:19;97302.81;;;10.42;52.85
16461;BME280;8341;42.048;24.650;2024-03-23T08:27:46;97293.78;;;10.65;54.04
16461;BME280;8341;42.048;24.650;2024-03-23T08:30:13;97287.28;;;10.48;53.49
16461;BME280;8341;42.048;24.650;2024-03-23T08:32:40;97282.78;;;10.60;54.73
16461;BME280;8341;42.048;24.650;2024-03-23T08:35:07;97285.69;;;10.71;53.00
16461;BME280;8341;42.048;24.650;2024-03-23T08:37:34;97278.97;;;10.87;51.45
16461;BME280;8341;42.048;24.650;2024-03-23T08:40:00;97275.53;;;10.57;51.07
16461;BME280;8341;42.048;24.650;2024-03-23T08:42:29;97276.28;;;10.57;51.94
16461;BME280;8341;42.048;24.650;2024-03-23T08:44:55;97274.69;;;10.80;52.35
16461;BME280;8341;42.048;24.650;2024-03-23T08:47:22;97275.03;;;10.88;51.46
16461;BME280;8341;42.048;24.650;2024-03-23T08:49:48;97266.22;;;11.13;53.57
16461;BME280;8341;42.048;24.650;2024-03-23T08:52:15;97257.88;;;11.02;54.13
16461;BME280;8341;42.048;24.650;2024-03-23T08:54:41;97260.09;;;11.18;53.73
16461;BME280;8341;42.048;24.650;2024-03-23T08:57:08;97262.97;;;11.09;53.25
16461;BME280;8341;42.048;24.650;2024-03-23T08:59:37;97254.19;;;11.19;53.93
16461;BME280;8341;42.048;24.650;2024-03-23T09:02:05;97261.28;;;10.97;52.42
16461;BME280;8341;42.048;24.650;2024-03-23T09:04:31;97243.94;;;11.14;52.58
16461;BME280;8341;42.048;24.650;2024-03-23T09:06:57;97232.34;;;11.19;52.61
16461;BME280;8341;42.048;24.650;2024-03-23T09:09:25;97229.13;;;11.21;52.23
16461;BME280;8341;42.048;24.650;2024-03-23T09:11:52;97245.25;;;11.39;52.45
16461;BME280;8341;42.048;24.650;2024-03-23T09:14:18;97245.19;;;11.54;52.33
16461;BME280;8341;42.048;24.650;2024-03-23T09:16:49;97243.16;;;11.49;49.91
16461;BME280;8341;42.048;24.650;2024-03-23T09:19:16;97237.41;;;11.67;51.06
16461;BME280;8341;42.048;24.650;2024-03-23T09:21:43;97240.31;;;11.78;50.79
16461;BME280;8341;42.048;24.650;2024-03-23T09:24:09;97230.94;;;11.84;49.56
16461;BME280;8341;42.048;24.650;2024-03-23T09:26:36;97235.75;;;11.95;49.05
16461;BME280;8341;42.048;24.650;2024-03-23T09:29:02;97237.00;;;12.20;49.11
16461;BME280;8341;42.048;24.650;2024-03-23T09:31:29;97228.97;;;12.36;49.29
16461;BME280;8341;42.048;24.650;2024-03-23T09:33:58;97219.94;;;12.56;47.57
16461;BME280;8341;42.048;24.650;2024-03-23T09:36:25;97225.09;;;12.80;45.47
16461;BME280;8341;42.048;24.650;2024-03-23T09:38:51;97219.44;;;12.89;45.72
16461;BME280;8341;42.048;24.650;2024-03-23T09:41:18;97216.78;;;13.05;44.99
16461;BME280;8341;42.048;24.650;2024-03-23T09:43:43;97216.44;;;13.24;45.23
16461;BME280;8341;42.048;24.650;2024-03-23T09:46:13;97217.94;;;13.25;44.58
16461;BME280;8341;42.048;24.650;2024-03-23T09:48:40;97213.38;;;13.10;43.36
16461;BME280;8341;42.048;24.650;2024-03-23T09:51:08;97202.97;;;13.14;43.23
16461;BME280;8341;42.048;24.650;2024-03-23T09:53:36;97201.56;;;13.36;45.15
16461;BME280;8341;42.048;24.650;2024-03-23T09:56:04;97204.41;;;13.69;42.61
16461;BME280;8341;42.048;24.650;2024-03-23T09:58:30;97204.75;;;13.93;42.55
16461;BME280;8341;42.048;24.650;2024-03-23T10:00:57;97200.47;;;13.75;40.55
16461;BME280;8341;42.048;24.650;2024-03-23T10:03:23;97180.69;;;13.49;42.14
16461;BME280;8341;42.048;24.650;2024-03-23T10:06:00;97179.53;;;13.72;40.90
16461;BME280;8341;42.048;24.650;2024-03-23T10:08:29;97187.00;;;13.77;40.23
16461;BME280;8341;42.048;24.650;2024-03-23T10:10:56;97185.25;;;13.69;38.86
16461;BME280;8341;42.048;24.650;2024-03-23T10:13:26;97178.84;;;14.05;41.07
16461;BME280;8341;42.048;24.650;2024-03-23T10:15:56;97175.41;;;14.38;39.48
16461;BME280;8341;42.048;24.650;2024-03-23T10:18:22;97166.69;;;14.39;38.95
16461;BME280;8341;42.048;24.650;2024-03-23T10:20:52;97171.94;;;14.43;39.04
16461;BME280;8341;42.048;24.650;2024-03-23T10:23:19;97165.19;;;14.27;37.86
16461;BME280;8341;42.048;24.650;2024-03-23T10:25:47;97164.44;;;14.38;39.29
16461;BME280;8341;42.048;24.650;2024-03-23T10:28:13;97159.47;;;14.48;36.25
16461;BME280;8341;42.048;24.650;2024-03-23T10:30:40;97156.22;;;14.43;37.01
16461;BME280;8341;42.048;24.650;2024-03-23T10:33:09;97152.44;;;14.80;37.72
16461;BME280;8341;42.048;24.650;2024-03-23T10:35:37;97134.44;;;14.90;36.46
16461;BME280;8341;42.048;24.650;2024-03-23T10:38:05;97141.66;;;14.98;35.74
16461;BME280;8341;42.048;24.650;2024-03-23T10:40:34;97120.09;;;15.30;36.74
16461;BME280;8341;42.048;24.650;2024-03-23T10:43:03;97128.94;;;14.84;36.29
16461;BME280;8341;42.048;24.650;2024-03-23T10:45:30;97125.19;;;14.93;37.30
16461;BME280;8341;42.048;24.650;2024-03-23T10:47:56;97129.94;;;14.98;36.39
16461;BME280;8341;42.048;24.650;2024-03-23T10:50:23;97116.53;;;15.46;37.47
16461;BME280;8341;42.048;24.650;2024-03-23T10:52:49;97103.28;;;15.50;37.40
16461;BME280;8341;42.048;24.650;2024-03-23T10:55:18;97114.13;;;15.73;37.26
16461;BME280;8341;42.048;24.650;2024-03-23T10:57:49;97106.13;;;15.75;35.47
16461;BME280;8341;42.048;24.650;2024-03-23T11:00:19;97110.06;;;15.85;34.94
16461;BME280;8341;42.048;24.650;2024-03-23T11:02:47;97102.06;;;15.87;36.01
16461;BME280;8341;42.048;24.650;2024-03-23T11:05:29;97092.31;;;15.39;37.58
16461;BME280;8341;42.048;24.650;2024-03-23T11:07:56;97090.56;;;15.83;37.63
16461;BME280;8341;42.048;24.650;2024-03-23T11:10:27;97081.31;;;15.86;36.39
16461;BME280;8341;42.048;24.650;2024-03-23T11:12:54;97084.28;;;15.52;36.68
16461;BME280;8341;42.048;24.650;2024-03-23T11:15:23;97081.81;;;15.84;36.31
16461;BME280;8341;42.048;24.650;2024-03-23T11:18:05;97065.16;;;16.06;36.08
16461;BME280;8341;42.048;24.650;2024-03-23T11:20:34;97062.91;;;16.05;36.39
16461;BME280;8341;42.048;24.650;2024-03-23T11:23:00;97047.69;;;15.69;35.66
16461;BME280;8341;42.048;24.650;2024-03-23T11:25:28;97063.78;;;15.89;35.87
16461;BME280;8341;42.048;24.650;2024-03-23T11:27:54;97056.13;;;15.76;36.37
16461;BME280;8341;42.048;24.650;2024-03-23T11:30:24;97044.44;;;16.00;35.60
16461;BME280;8341;42.048;24.650;2024-03-23T11:32:51;97048.28;;;15.91;35.68
16461;BME280;8341;42.048;24.650;2024-03-23T11:35:27;97029.03;;;16.15;36.06
16461;BME280;8341;42.048;24.650;2024-03-23T11:38:06;97037.16;;;16.32;34.99
16461;BME280;8341;42.048;24.650;2024-03-23T11:40:34;97027.66;;;16.57;36.10
16461;BME280;8341;42.048;24.650;2024-03-23T11:43:01;97022.38;;;16.35;33.50
16461;BME280;8341;42.048;24.650;2024-03-23T11:45:33;97019.25;;;16.44;32.81
16461;BME280;8341;42.048;24.650;2024-03-23T11:48:05;97010.84;;;16.37;34.15
16461;BME280;8341;42.048;24.650;2024-03-23T11:50:33;96993.69;;;16.49;34.44
16461;BME280;8341;42.048;24.650;2024-03-23T11:53:12;96990.50;;;16.45;31.50
16461;BME280;8341;42.048;24.650;2024-03-23T11:55:45;97000.06;;;16.63;31.01
16461;BME280;8341;42.048;24.650;2024-03-23T11:58:12;97001.44;;;16.94;31.39
16461;BME280;8341;42.048;24.650;2024-03-23T12:00:40;96981.22;;;17.10;31.52
16461;BME280;8341;42.048;24.650;2024-03-23T12:03:07;96991.03;;;17.24;33.54
16461;BME280;8341;42.048;24.650;2024-03-23T12:05:36;96982.22;;;17.44;31.93
16461;BME280;8341;42.048;24.650;2024-03-23T12:08:16;96975.16;;;17.30;31.54
16461;BME280;8341;42.048;24.650;2024-03-23T12:10:44;96970.91;;;17.29;32.36
16461;BME280;8341;42.048;24.650;2024-03-23T12:13:10;96976.97;;;17.27;30.99
16461;BME280;8341;42.048;24.650;2024-03-23T12:15:37;96976.22;;;17.27;32.06
16461;BME280;8341;42.048;24.650;2024-03-23T12:18:09;96970.56;;;17.01;30.35
16461;BME280;8341;42.048;24.650;2024-03-23T12:20:36;96966.81;;;16.79;33.38
16461;BME280;8341;42.048;24.650;2024-03-23T12:23:10;96965.72;;;17.07;31.43
16461;BME280;8341;42.048;24.650;2024-03-23T12:25:38;96955.38;;;16.51;29.59
16461;BME280;8341;42.048;24.650;2024-03-23T12:28:04;96964.06;;;16.79;29.08
16461;BME280;8341;42.048;24.650;2024-03-23T12:30:38;96954.03;;;16.82;28.55
16461;BME280;8341;42.048;24.650;2024-03-23T12:33:04;96947.66;;;16.50;28.54
16461;BME280;8341;42.048;24.650;2024-03-23T12:35:33;96958.00;;;16.86;28.06
16461;BME280;8341;42.048;24.650;2024-03-23T12:37:59;96947.88;;;16.95;28.08
16461;BME280;8341;42.048;24.650;2024-03-23T12:40:26;96939.97;;;17.04;29.45
16461;BME280;8341;42.048;24.650;2024-03-23T12:42:53;96934.13;;;17.08;29.41
16461;BME280;8341;42.048;24.650;2024-03-23T12:45:21;96933.03;;;17.16;30.30
16461;BME280;8341;42.048;24.650;2024-03-23T12:47:47;96923.50;;;16.99;30.63
16461;BME280;8341;42.048;24.650;2024-03-23T12:50:14;96926.41;;;17.06;28.90
16461;BME280;8341;42.048;24.650;2024-03-23T12:52:42;96917.47;;;17.00;28.55
16461;BME280;8341;42.048;24.650;2024-03-23T12:55:09;96912.72;;;16.82;29.82
16461;BME280;8341;42.048;24.650;2024-03-23T12:57:35;96914.06;;;16.75;28.69
16461;BME280;8341;42.048;24.650;2024-03-23T13:00:03;96910.19;;;16.65;30.42
16461;BME280;8341;42.048;24.650;2024-03-23T13:02:29;96909.75;;;16.99;28.96
16461;BME280;8341;42.048;24.650;2024-03-23T13:04:57;96902.78;;;17.11;27.91
16461;BME280;8341;42.048;24.650;2024-03-23T13:07:23;96896.00;;;17.30;28.62
16461;BME280;8341;42.048;24.650;2024-03-23T13:09:52;96889.06;;;17.24;29.26
16461;BME280;8341;42.048;24.650;2024-03-23T13:12:18;96891.53;;;17.27;30.55
16461;BME280;8341;42.048;24.650;2024-03-23T13:14:46;96884.50;;;17.26;30.15
16461;BME280;8341;42.048;24.650;2024-03-23T13:17:12;96885.53;;;17.42;30.09
16461;BME280;8341;42.048;24.650;2024-03-23T13:19:39;96879.25;;;17.41;29.69
16461;BME280;8341;42.048;24.650;2024-03-23T13:22:05;96874.03;;;17.70;29.77
16461;BME280;8341;42.048;24.650;2024-03-23T13:24:32;96872.81;;;17.52;28.69
16461;BME280;8341;42.048;24.650;2024-03-23T13:27:00;96876.41;;;17.47;29.22
16461;BME280;8341;42.048;24.650;2024-03-23T13:29:27;96863.31;;;17.53;27.85
16461;BME280;8341;42.048;24.650;2024-03-23T13:31:52;96862.84;;;17.49;27.79
16461;BME280;8341;42.048;24.650;2024-03-23T13:34:20;96868.59;;;17.51;27.38
16461;BME280;8341;42.048;24.650;2024-03-23T13:36:46;96861.00;;;17.70;26.59
16461;BME280;8341;42.048;24.650;2024-03-23T13:39:14;96861.44;;;17.74;28.20
16461;BME280;8341;42.048;24.650;2024-03-23T13:41:42;96865.88;;;17.77;27.84
16461;BME280;8341;42.048;24.650;2024-03-23T13:44:11;96856.34;;;17.78;27.19
16461;BME280;8341;42.048;24.650;2024-03-23T13:46:38;96859.28;;;17.67;26.44
16461;BME280;8341;42.048;24.650;2024-03-23T13:49:05;96854.72;;;17.70;26.03
16461;BME280;8341;42.048;24.650;2024-03-23T13:51:31;96847.53;;;17.54;26.31
16461;BME280;8341;42.048;24.650;2024-03-23T13:53:58;96850.00;;;17.51;25.90
16461;BME280;8341;42.048;24.650;2024-03-23T13:56:26;96844.06;;;17.47;25.54
16461;BME280;8341;42.048;24.650;2024-03-23T13:58:55;96837.81;;;17.47;26.18